createdAt,value
2023-02-09T00:02:14.970Z,13.07
2023-02-09T00:04:46.923Z,13.05
2023-02-09T00:07:18.909Z,13.02
2023-02-09T00:09:51.838Z,12.99
2023-02-09T00:12:42.422Z,12.96
2023-02-09T00:15:15.049Z,12.94
2023-02-09T00:17:46.961Z,12.90
2023-02-09T00:20:19.044Z,12.88
2023-02-09T00:22:51.040Z,12.85
2023-02-09T00:25:22.939Z,12.82
2023-02-09T00:27:54.906Z,12.79
2023-02-09T00:30:26.850Z,12.77
2023-02-09T00:32:58.758Z,12.75
2023-02-09T00:35:30.688Z,12.72
2023-02-09T00:38:02.614Z,12.69
2023-02-09T00:40:34.807Z,12.67
2023-02-09T00:43:07.811Z,12.64
2023-02-09T00:45:39.615Z,12.62
2023-02-09T00:48:11.588Z,12.59
2023-02-09T00:50:43.741Z,12.56
2023-02-09T00:53:15.832Z,12.55
2023-02-09T00:55:48.180Z,12.52
2023-02-09T00:58:20.352Z,12.51
2023-02-09T01:00:52.296Z,12.49
2023-02-09T01:03:24.271Z,12.47
2023-02-09T01:05:59.538Z,12.44
2023-02-09T01:08:33.259Z,12.42
2023-02-09T01:11:12.587Z,12.41
2023-02-09T01:13:45.559Z,12.39
2023-02-09T01:16:18.736Z,12.36
2023-02-09T01:18:50.801Z,12.35
2023-02-09T01:21:23.490Z,12.32
2023-02-09T01:23:55.675Z,12.31
2023-02-09T01:26:27.950Z,12.29
2023-02-09T01:28:59.886Z,12.27
2023-02-09T01:31:34.569Z,12.25
2023-02-09T01:34:06.594Z,12.23
2023-02-09T01:36:38.685Z,12.21
2023-02-09T01:39:12.143Z,12.18
2023-02-09T01:41:45.348Z,12.17
2023-02-09T01:44:17.269Z,12.17
2023-02-09T01:46:51.742Z,12.21
2023-02-09T01:49:28.278Z,12.29
2023-02-09T01:52:03.393Z,12.43
2023-02-09T01:54:43.961Z,12.55
2023-02-09T01:57:22.787Z,12.68
2023-02-09T02:00:00.305Z,12.83
2023-02-09T02:02:34.013Z,12.97
2023-02-09T02:05:08.210Z,13.14
2023-02-09T02:08:04.125Z,13.32
2023-02-09T02:10:36.235Z,13.55
2023-02-09T02:13:08.280Z,13.76
2023-02-09T02:16:04.727Z,13.96
2023-02-09T02:19:14.534Z,14.20
2023-02-09T02:21:58.424Z,14.43
2023-02-09T02:24:32.993Z,14.62
2023-02-09T02:27:09.505Z,14.76
2023-02-09T02:30:04.250Z,14.88
2023-02-09T02:32:41.263Z,14.97
2023-02-09T02:35:25.853Z,15.05
2023-02-09T02:38:33.209Z,15.12
2023-02-09T02:41:26.256Z,15.18
2023-02-09T02:44:13.516Z,15.23
2023-02-09T02:46:49.072Z,15.25
2023-02-09T02:49:43.944Z,15.28
2023-02-09T02:52:15.852Z,15.28
2023-02-09T02:55:03.765Z,15.27
2023-02-09T02:57:39.171Z,15.27
2023-02-09T03:00:14.673Z,15.25
2023-02-09T03:02:49.839Z,15.23
2023-02-09T03:05:24.331Z,15.21
2023-02-09T03:07:56.500Z,15.19
2023-02-09T03:10:34.868Z,15.16
2023-02-09T03:13:11.700Z,15.12
2023-02-09T03:16:02.060Z,15.07
2023-02-09T03:18:46.234Z,15.03
2023-02-09T03:21:27.370Z,14.98
2023-02-09T03:24:04.150Z,14.94
2023-02-09T03:27:03.679Z,14.90
2023-02-09T03:29:37.145Z,14.84
2023-02-09T03:32:09.137Z,14.80
2023-02-09T03:34:41.061Z,14.74
2023-02-09T03:37:13.672Z,14.69
2023-02-09T03:39:45.635Z,14.64
2023-02-09T03:42:17.624Z,14.60
2023-02-09T03:44:49.619Z,14.55
2023-02-09T03:47:21.615Z,14.50
2023-02-09T03:49:53.544Z,14.45
2023-02-09T03:52:25.571Z,14.38
2023-02-09T03:54:57.484Z,14.34
2023-02-09T03:57:29.601Z,14.29
2023-02-09T04:00:01.874Z,14.24
2023-02-09T04:02:44.572Z,14.20
2023-02-09T04:05:16.628Z,14.15
2023-02-09T04:07:48.685Z,14.10
2023-02-09T04:10:20.654Z,14.05
2023-02-09T04:12:52.625Z,14.01
2023-02-09T04:15:24.596Z,13.95
2023-02-09T04:17:56.543Z,13.90
2023-02-09T04:20:28.551Z,13.86
2023-02-09T04:23:00.523Z,13.80
2023-02-09T04:25:32.540Z,13.76
2023-02-09T04:28:04.809Z,13.71
2023-02-09T04:30:36.908Z,13.65
2023-02-09T04:33:08.922Z,13.61
2023-02-09T04:35:40.819Z,13.56
2023-02-09T04:38:12.748Z,13.52
2023-02-09T04:40:44.835Z,13.46
2023-02-09T04:43:18.020Z,13.42
2023-02-09T04:45:49.876Z,13.37
2023-02-09T04:48:24.129Z,13.32
2023-02-09T04:50:56.212Z,13.28
2023-02-09T04:53:29.809Z,13.21
2023-02-09T04:56:01.987Z,13.16
2023-02-09T04:58:52.438Z,13.11
2023-02-09T05:01:25.163Z,13.06
2023-02-09T05:03:57.159Z,13.01
2023-02-09T05:06:29.175Z,12.99
2023-02-09T05:09:01.059Z,12.97
2023-02-09T05:11:32.992Z,12.97
2023-02-09T05:14:04.938Z,13.01
2023-02-09T05:16:39.112Z,13.08
2023-02-09T05:19:11.527Z,13.16
2023-02-09T05:21:43.467Z,13.25
2023-02-09T05:24:15.445Z,13.38
2023-02-09T05:26:47.317Z,13.49
2023-02-09T05:29:20.883Z,13.62
2023-02-09T05:31:54.199Z,13.77
2023-02-09T05:34:26.176Z,13.93
2023-02-09T05:36:58.041Z,14.11
2023-02-09T05:39:30.004Z,14.30
2023-02-09T05:42:17.447Z,14.50
2023-02-09T05:44:51.223Z,14.71
2023-02-09T05:47:24.929Z,14.89
2023-02-09T05:49:56.872Z,15.06
2023-02-09T05:52:28.912Z,15.25
2023-02-09T05:55:00.814Z,15.40
2023-02-09T05:57:32.888Z,15.55
2023-02-09T06:00:06.379Z,15.69
2023-02-09T06:02:43.827Z,15.81
2023-02-09T06:05:15.840Z,15.93
2023-02-09T06:07:48.684Z,16.05
2023-02-09T06:10:20.805Z,16.16
2023-02-09T06:12:52.845Z,16.27
2023-02-09T06:15:24.819Z,16.39
2023-02-09T06:17:56.797Z,16.48
2023-02-09T06:20:28.833Z,16.57
2023-02-09T06:23:00.800Z,16.67
2023-02-09T06:25:32.675Z,16.76
2023-02-09T06:28:04.687Z,16.85
2023-02-09T06:30:36.694Z,16.93
2023-02-09T06:33:08.688Z,17.02
2023-02-09T06:35:40.566Z,17.09
2023-02-09T06:38:13.114Z,17.17
2023-02-09T06:40:46.061Z,17.24
2023-02-09T06:43:18.611Z,17.31
2023-02-09T06:45:50.567Z,17.38
2023-02-09T06:48:22.566Z,17.45
2023-02-09T06:50:54.681Z,17.52
2023-02-09T06:53:26.830Z,17.61
2023-02-09T06:56:02.233Z,17.66
2023-02-09T06:58:34.970Z,17.70
2023-02-09T07:01:10.108Z,17.74
2023-02-09T07:03:42.921Z,17.77
2023-02-09T07:06:21.556Z,17.80
2023-02-09T07:08:53.802Z,17.79
2023-02-09T07:11:25.742Z,17.79
2023-02-09T07:13:57.784Z,17.77
2023-02-09T07:16:29.729Z,17.74
2023-02-09T07:19:01.765Z,17.72
2023-02-09T07:21:33.682Z,17.69
2023-02-09T07:24:05.809Z,17.67
2023-02-09T07:26:37.732Z,17.68
2023-02-09T07:29:11.452Z,17.74
2023-02-09T07:31:44.874Z,17.87
2023-02-09T07:34:17.273Z,18.08
2023-02-09T07:36:49.596Z,18.34
2023-02-09T07:39:21.625Z,18.66
2023-02-09T07:41:53.752Z,18.99
2023-02-09T07:44:27.098Z,19.28
2023-02-09T07:46:59.009Z,19.60
2023-02-09T07:49:30.909Z,19.87
2023-02-09T07:52:02.881Z,20.15
2023-02-09T07:54:34.823Z,20.42
2023-02-09T07:57:06.647Z,20.69
2023-02-09T07:59:38.644Z,20.93
2023-02-09T08:02:18.701Z,21.16
2023-02-09T08:04:50.792Z,21.40
2023-02-09T08:07:22.636Z,21.63
2023-02-09T08:09:54.646Z,21.85
2023-02-09T08:12:47.810Z,22.08
2023-02-09T08:15:21.357Z,22.36
2023-02-09T08:17:54.709Z,22.59
2023-02-09T08:20:28.454Z,22.80
2023-02-09T08:23:05.389Z,22.99
2023-02-09T08:25:37.841Z,23.20
2023-02-09T08:28:09.830Z,23.37
2023-02-09T08:30:41.925Z,23.53
2023-02-09T08:33:14.000Z,23.73
2023-02-09T08:35:46.926Z,23.90
2023-02-09T08:38:20.059Z,24.13
2023-02-09T08:40:52.055Z,24.35
2023-02-09T08:43:24.055Z,24.60
2023-02-09T08:45:56.209Z,24.85
2023-02-09T08:48:31.222Z,25.07
2023-02-09T08:51:04.101Z,25.25
2023-02-09T08:53:36.080Z,25.20
2023-02-09T08:56:09.009Z,24.87
2023-02-09T08:58:40.981Z,24.53
2023-02-09T09:01:13.992Z,24.28
2023-02-09T09:03:46.271Z,24.09
2023-02-09T09:06:18.211Z,24.15
2023-02-09T09:08:51.904Z,24.25
2023-02-09T09:11:23.934Z,24.61
2023-02-09T09:13:55.914Z,25.11
2023-02-09T09:16:27.873Z,25.79
2023-02-09T09:19:00.364Z,26.46
2023-02-09T09:21:33.436Z,27.08
2023-02-09T09:24:05.472Z,27.67
2023-02-09T09:26:37.390Z,28.20
2023-02-09T09:29:10.061Z,28.69
2023-02-09T09:31:42.161Z,29.16
2023-02-09T09:34:14.095Z,29.58
2023-02-09T09:36:46.030Z,29.96
2023-02-09T09:39:19.055Z,30.30
2023-02-09T09:41:53.111Z,30.63
2023-02-09T09:44:38.325Z,30.94
2023-02-09T09:47:17.688Z,31.25
2023-02-09T09:49:49.953Z,31.51
2023-02-09T09:52:28.069Z,31.64
2023-02-09T09:55:01.875Z,31.78
2023-02-09T09:57:34.817Z,32.02
2023-02-09T10:00:22.822Z,32.23
2023-02-09T10:02:54.862Z,32.45
2023-02-09T10:05:29.456Z,32.61
2023-02-09T10:08:27.542Z,32.70
2023-02-09T10:11:10.670Z,32.49
2023-02-09T10:13:53.860Z,32.18
2023-02-09T10:16:28.118Z,31.99
2023-02-09T10:19:06.217Z,31.84
2023-02-09T10:21:38.720Z,31.69
2023-02-09T10:24:16.762Z,31.59
2023-02-09T10:27:28.626Z,31.55
2023-02-09T10:30:27.526Z,31.60
2023-02-09T10:33:00.719Z,31.70
2023-02-09T10:35:43.648Z,31.83
2023-02-09T10:38:18.227Z,31.98
2023-02-09T10:40:51.120Z,32.12
2023-02-09T10:43:27.926Z,32.23
2023-02-09T10:46:02.752Z,32.38
2023-02-09T10:48:46.495Z,32.61
2023-02-09T10:51:29.519Z,32.85
2023-02-09T10:54:04.728Z,33.07
2023-02-09T10:56:42.738Z,33.28
2023-02-09T10:59:16.556Z,33.48
2023-02-09T11:01:59.468Z,33.65
2023-02-09T11:04:39.373Z,33.77
2023-02-09T11:07:18.307Z,33.88
2023-02-09T11:09:51.799Z,33.95
2023-02-09T11:12:24.791Z,34.03
2023-02-09T11:14:56.743Z,34.03
2023-02-09T11:17:40.263Z,34.03
2023-02-09T11:20:15.730Z,33.99
2023-02-09T11:23:14.391Z,33.97
2023-02-09T11:26:04.221Z,33.95
2023-02-09T11:28:42.310Z,33.94
2023-02-09T11:31:36.332Z,33.93
2023-02-09T11:34:34.065Z,33.90
2023-02-09T11:37:25.463Z,33.87
2023-02-09T11:40:15.882Z,33.84
2023-02-09T11:42:56.477Z,33.78
2023-02-09T11:45:42.679Z,33.68
2023-02-09T11:48:26.170Z,33.59
2023-02-09T11:51:13.535Z,33.52
2023-02-09T11:54:04.097Z,33.38
2023-02-09T11:56:41.914Z,33.31
2023-02-09T11:59:37.188Z,33.22
2023-02-09T12:02:23.612Z,33.14
2023-02-09T12:05:01.357Z,33.14
2023-02-09T12:07:58.404Z,33.16
2023-02-09T12:10:38.889Z,33.24
2023-02-09T12:13:25.892Z,33.41
2023-02-09T12:16:04.598Z,33.62
2023-02-09T12:18:37.012Z,33.80
2023-02-09T12:21:09.004Z,33.96
2023-02-09T12:23:42.988Z,34.14
2023-02-09T12:26:17.952Z,34.30
2023-02-09T12:29:16.994Z,34.45
2023-02-09T12:32:04.310Z,34.62
2023-02-09T12:34:46.153Z,34.78
2023-02-09T12:37:28.017Z,34.93
2023-02-09T12:40:21.273Z,35.08
2023-02-09T12:42:53.120Z,35.15
2023-02-09T12:45:41.777Z,35.17
2023-02-09T12:48:17.771Z,35.19
2023-02-09T12:50:55.074Z,35.20
2023-02-09T12:53:34.827Z,35.19
2023-02-09T12:56:06.728Z,35.09
2023-02-09T12:58:44.683Z,34.92
2023-02-09T13:01:17.092Z,34.80
2023-02-09T13:04:05.522Z,34.67
2023-02-09T13:06:55.497Z,34.43
2023-02-09T13:09:33.169Z,33.81
2023-02-09T13:12:14.824Z,33.19
2023-02-09T13:14:50.243Z,32.87
2023-02-09T13:17:27.101Z,32.71
2023-02-09T13:20:28.740Z,32.18
2023-02-09T13:23:20.765Z,31.40
2023-02-09T13:26:00.783Z,30.61
2023-02-09T13:28:32.823Z,29.93
2023-02-09T13:31:22.196Z,29.33
2023-02-09T13:33:59.459Z,28.71
2023-02-09T13:36:49.646Z,28.18
2023-02-09T13:39:24.939Z,27.67
2023-02-09T13:41:56.902Z,27.31
2023-02-09T13:44:32.274Z,26.93
2023-02-09T13:47:07.334Z,26.58
2023-02-09T13:49:39.285Z,26.24
2023-02-09T13:52:23.758Z,25.95
2023-02-09T13:54:55.831Z,25.69
2023-02-09T13:57:36.543Z,25.44
2023-02-09T14:00:21.118Z,25.17
2023-02-09T14:03:12.471Z,24.96
2023-02-09T14:05:49.431Z,24.79
2023-02-09T14:08:22.591Z,24.69
2023-02-09T14:11:00.635Z,24.48
2023-02-09T14:13:36.343Z,24.31
2023-02-09T14:16:09.311Z,24.35
2023-02-09T14:19:01.404Z,24.54
2023-02-09T14:21:40.368Z,24.74
2023-02-09T14:24:15.042Z,24.85
2023-02-09T14:27:04.172Z,24.87
2023-02-09T14:29:37.220Z,24.85
2023-02-09T14:32:32.395Z,24.75
2023-02-09T14:35:42.231Z,24.63
2023-02-09T14:38:39.991Z,24.43
2023-02-09T14:41:30.328Z,24.13
2023-02-09T14:44:03.788Z,23.83
2023-02-09T14:47:00.544Z,23.55
2023-02-09T14:49:32.437Z,23.24
2023-02-09T14:52:10.754Z,22.98
2023-02-09T14:54:47.635Z,22.73
2023-02-09T14:57:20.479Z,22.51
2023-02-09T14:59:52.322Z,22.30
2023-02-09T15:02:27.568Z,22.11
2023-02-09T15:05:00.477Z,21.90
2023-02-09T15:07:35.736Z,21.70
2023-02-09T15:10:20.373Z,21.52
2023-02-09T15:12:52.537Z,21.32
2023-02-09T15:15:25.897Z,21.13
2023-02-09T15:17:59.908Z,20.93
2023-02-09T15:20:32.730Z,20.73
2023-02-09T15:23:04.679Z,20.54
2023-02-09T15:25:38.178Z,20.37
2023-02-09T15:28:29.459Z,20.19
2023-02-09T15:31:01.604Z,20.00
2023-02-09T15:33:33.683Z,19.86
2023-02-09T15:36:05.952Z,19.74
2023-02-09T15:38:37.912Z,19.65
2023-02-09T15:41:29.735Z,19.57
2023-02-09T15:44:30.906Z,19.52
2023-02-09T15:47:21.569Z,19.50
2023-02-09T15:49:53.543Z,19.50
2023-02-09T15:52:25.520Z,19.53
2023-02-09T15:54:58.248Z,19.58
2023-02-09T15:57:30.250Z,19.64
2023-02-09T16:00:02.403Z,19.70
2023-02-09T16:02:36.912Z,19.77
2023-02-09T16:05:08.876Z,19.85
2023-02-09T16:07:40.788Z,19.93
2023-02-09T16:10:27.319Z,20.01
2023-02-09T16:12:59.812Z,20.10
2023-02-09T16:15:31.778Z,20.17
2023-02-09T16:18:03.623Z,20.24
2023-02-09T16:20:36.160Z,20.31
2023-02-09T16:23:20.170Z,20.34
2023-02-09T16:25:53.809Z,20.38
2023-02-09T16:28:25.790Z,20.40
2023-02-09T16:30:58.198Z,20.40
2023-02-09T16:33:30.167Z,20.38
2023-02-09T16:36:02.865Z,20.36
2023-02-09T16:38:34.868Z,20.32
2023-02-09T16:41:26.760Z,20.26
2023-02-09T16:43:59.966Z,20.20
2023-02-09T16:46:32.807Z,20.14
2023-02-09T16:49:04.645Z,20.08
2023-02-09T16:51:36.574Z,20.01
2023-02-09T16:54:10.251Z,19.95
2023-02-09T16:56:52.723Z,19.87
2023-02-09T16:59:25.913Z,19.79
2023-02-09T17:02:00.106Z,19.72
2023-02-09T17:04:32.131Z,19.63
2023-02-09T17:07:04.020Z,19.56
2023-02-09T17:09:35.960Z,19.47
2023-02-09T17:12:12.059Z,19.39
2023-02-09T17:14:43.943Z,19.31
2023-02-09T17:17:20.863Z,19.23
2023-02-09T17:19:59.727Z,19.14
2023-02-09T17:22:32.084Z,19.05
2023-02-09T17:25:04.246Z,18.96
2023-02-09T17:27:36.152Z,18.87
2023-02-09T17:30:09.913Z,18.79
2023-02-09T17:32:42.950Z,18.70
2023-02-09T17:35:38.275Z,18.62
2023-02-09T17:38:28.096Z,18.54
2023-02-09T17:41:02.305Z,18.45
2023-02-09T17:43:34.433Z,18.38
2023-02-09T17:46:08.176Z,18.31
2023-02-09T17:48:40.246Z,18.24
2023-02-09T17:51:36.949Z,18.17
2023-02-09T17:54:19.036Z,18.09
2023-02-09T17:56:51.023Z,18.00
2023-02-09T17:59:22.983Z,17.93
2023-02-09T18:01:56.441Z,17.87
2023-02-09T18:04:28.872Z,17.80
2023-02-09T18:07:02.358Z,17.74
2023-02-09T18:09:34.329Z,17.67
2023-02-09T18:12:32.555Z,17.61
2023-02-09T18:15:06.873Z,17.52
2023-02-09T18:17:42.460Z,17.47
2023-02-09T18:20:22.673Z,17.40
2023-02-09T18:22:55.551Z,17.34
2023-02-09T18:25:28.967Z,17.27
2023-02-09T18:28:01.788Z,17.20
2023-02-09T18:30:35.286Z,17.14
2023-02-09T18:33:07.438Z,17.07
2023-02-09T18:35:41.358Z,17.01
2023-02-09T18:38:15.265Z,16.95
2023-02-09T18:40:47.280Z,16.88
2023-02-09T18:43:19.294Z,16.83
2023-02-09T18:45:51.193Z,16.79
2023-02-09T18:48:23.097Z,16.75
2023-02-09T18:50:55.085Z,16.73
2023-02-09T18:53:26.999Z,16.72
2023-02-09T18:55:58.970Z,16.74
2023-02-09T18:58:30.820Z,16.78
2023-02-09T19:01:02.778Z,16.82
2023-02-09T19:03:34.753Z,16.89
2023-02-09T19:06:11.032Z,16.97
2023-02-09T19:08:43.071Z,17.08
2023-02-09T19:11:17.041Z,17.18
2023-02-09T19:14:08.259Z,17.30
2023-02-09T19:16:41.437Z,17.44
2023-02-09T19:19:13.704Z,17.56
2023-02-09T19:21:45.726Z,17.70
2023-02-09T19:24:18.738Z,17.83
2023-02-09T19:26:50.660Z,17.96
2023-02-09T19:29:25.962Z,18.09
2023-02-09T19:31:57.865Z,18.22
2023-02-09T19:34:36.382Z,18.31
2023-02-09T19:37:08.659Z,18.41
2023-02-09T19:39:41.747Z,18.48
2023-02-09T19:42:14.725Z,18.55
2023-02-09T19:44:46.843Z,18.58
2023-02-09T19:47:25.843Z,18.61
2023-02-09T19:49:58.815Z,18.62
2023-02-09T19:52:30.729Z,18.64
2023-02-09T19:55:03.102Z,18.63
2023-02-09T19:57:35.110Z,18.62
2023-02-09T20:00:07.801Z,18.60
2023-02-09T20:02:40.343Z,18.58
2023-02-09T20:05:12.495Z,18.56
2023-02-09T20:07:44.530Z,18.52
2023-02-09T20:10:16.498Z,18.48
2023-02-09T20:12:48.430Z,18.44
2023-02-09T20:15:20.355Z,18.39
2023-02-09T20:17:52.366Z,18.34
2023-02-09T20:20:24.346Z,18.30
2023-02-09T20:22:56.344Z,18.23
2023-02-09T20:25:28.283Z,18.18
2023-02-09T20:28:00.575Z,18.12
2023-02-09T20:30:32.500Z,18.06
2023-02-09T20:33:04.442Z,17.99
2023-02-09T20:35:44.336Z,17.93
2023-02-09T20:38:16.337Z,17.86
2023-02-09T20:40:48.787Z,17.80
2023-02-09T20:43:39.760Z,17.74
2023-02-09T20:46:39.247Z,17.67
2023-02-09T20:49:13.884Z,17.60
2023-02-09T20:51:46.254Z,17.54
2023-02-09T20:54:18.238Z,17.48
2023-02-09T20:56:50.375Z,17.43
2023-02-09T20:59:22.345Z,17.38
2023-02-09T21:01:54.272Z,17.31
2023-02-09T21:04:27.299Z,17.26
2023-02-09T21:07:00.562Z,17.20
2023-02-09T21:09:32.513Z,17.14
2023-02-09T21:12:04.576Z,17.09
2023-02-09T21:14:44.188Z,17.03
2023-02-09T21:17:16.816Z,16.96
2023-02-09T21:19:48.760Z,16.91
2023-02-09T21:22:20.723Z,16.85
2023-02-09T21:24:52.660Z,16.80
2023-02-09T21:27:26.388Z,16.75
2023-02-09T21:29:58.340Z,16.69
2023-02-09T21:32:30.378Z,16.63
2023-02-09T21:35:02.313Z,16.58
2023-02-09T21:37:34.189Z,16.52
2023-02-09T21:40:07.349Z,16.46
2023-02-09T21:42:39.987Z,16.41
2023-02-09T21:45:12.139Z,16.36
2023-02-09T21:47:44.039Z,16.30
2023-02-09T21:50:15.964Z,16.25
2023-02-09T21:52:50.110Z,16.19
2023-02-09T21:55:22.323Z,16.14
2023-02-09T21:57:54.205Z,16.09
2023-02-09T22:00:26.197Z,16.04
2023-02-09T22:02:58.065Z,15.98
2023-02-09T22:05:30.002Z,15.94
2023-02-09T22:08:01.856Z,15.86
2023-02-09T22:10:33.781Z,15.82
2023-02-09T22:13:08.680Z,15.75
2023-02-09T22:15:44.427Z,15.67
2023-02-09T22:18:16.290Z,15.60
2023-02-09T22:20:48.863Z,15.54
2023-02-09T22:23:21.120Z,15.47
2023-02-09T22:26:00.287Z,15.41
2023-02-09T22:28:35.860Z,15.35
2023-02-09T22:31:11.389Z,15.29
2023-02-09T22:33:43.512Z,15.24
2023-02-09T22:36:17.582Z,15.19
2023-02-09T22:38:49.543Z,15.14
2023-02-09T22:41:23.332Z,15.08
2023-02-09T22:44:01.442Z,15.03
2023-02-09T22:46:38.432Z,14.98
2023-02-09T22:49:19.143Z,14.94
2023-02-09T22:51:51.261Z,14.89
2023-02-09T22:54:23.213Z,14.84
2023-02-09T22:56:55.170Z,14.80
2023-02-09T22:59:27.175Z,14.76
2023-02-09T23:01:59.075Z,14.72
2023-02-09T23:04:32.333Z,14.67
2023-02-09T23:07:05.165Z,14.63
2023-02-09T23:09:37.241Z,14.59
2023-02-09T23:12:09.258Z,14.54
2023-02-09T23:14:41.236Z,14.51
2023-02-09T23:17:13.233Z,14.46
2023-02-09T23:19:45.295Z,14.42
2023-02-09T23:22:17.257Z,14.39
2023-02-09T23:24:49.220Z,14.36
2023-02-09T23:27:21.164Z,14.33
2023-02-09T23:29:54.923Z,14.29
2023-02-09T23:32:26.940Z,14.26
2023-02-09T23:37:38.293Z,14.19
2023-02-09T23:40:11.155Z,14.16
2023-02-09T23:42:43.121Z,14.14
2023-02-09T23:45:15.183Z,14.10
2023-02-09T23:47:47.164Z,14.06
2023-02-09T23:50:19.171Z,14.03
2023-02-09T23:52:51.106Z,14.01
2023-02-09T23:55:23.037Z,13.98
2023-02-09T23:57:54.913Z,13.96
